Time;durP1;ratioP1;P1;durP2;ratioP2;P2;SDS_P1;SDS_P2;PMS_P1;PMS_P2;Temp;Humidity;BMP_temperature;BMP_pressure;BME280_temperature;BME280_humidity;BME280_pressure;Samples;Min_cycle;Max_cycle;Signal;HPM_P1;HPM_P2
2022/01/28 00:01:08;;;;;;;;;;;5.20;99.90;;;;;;4976663;28;19929;-57
2022/01/28 00:03:34;;;;;;;;;;;5.20;99.90;;;;;;4987115;28;20018;-56
2022/01/28 00:06:00;;;;;;;;;;;6.00;99.90;;;;;;4994431;28;20066;-56
2022/01/28 00:08:25;;;;;;;;;;;5.30;99.90;;;;;;5006853;28;20434;-59
2022/01/28 00:10:52;;;;;;;;;;;5.30;99.90;;;;;;5007166;28;20051;-56
2022/01/28 00:13:37;;;;;;;;;;;5.30;99.90;;;;;;4986515;28;20398;-56
2022/01/28 00:16:33;;;;;;;;;;;5.30;99.90;;;;;;4987180;28;19972;-56
2022/01/28 00:38:10;;;;;;;;;;;4.70;99.90;;;;;;4967239;28;19976;-59
2022/01/28 00:40:36;;;;;;;;;;;4.60;99.90;;;;;;4967797;28;20024;-59
2022/01/28 00:43:02;;;;;;;;;;;4.60;99.90;;;;;;4966074;28;20025;-55
2022/01/28 00:45:28;;;;;;;;;;;4.60;99.90;;;;;;4967240;28;19930;-56
2022/01/28 00:47:53;;;;;;;;;;;4.60;99.90;;;;;;4967332;28;19937;-56
2022/01/28 00:50:19;;;;;;;;;;;4.60;99.90;;;;;;4967325;28;19937;-57
2022/01/28 00:52:45;;;;;;;;;;;4.60;99.90;;;;;;4966919;28;19952;-56
2022/01/28 00:55:10;;;;;;;;;;;4.60;99.90;;;;;;4967034;28;20380;-56
2022/01/28 00:57:36;;;;;;;;;;;4.60;99.90;;;;;;4971963;28;20005;-57
2022/01/28 01:00:03;;;;;;;;;;;4.60;99.90;;;;;;4984873;28;20016;-56
2022/01/28 01:02:28;;;;;;;;;;;4.60;99.90;;;;;;4967094;28;19941;-54
2022/01/28 01:04:54;;;;;;;;;;;4.60;99.90;;;;;;4985393;28;19930;-55
2022/01/28 01:07:19;;;;;;;;;;;5.20;99.90;;;;;;5004384;28;20440;-55
2022/01/28 01:09:46;;;;;;;;;;;4.70;99.90;;;;;;5005917;28;20031;-63
2022/01/28 01:12:12;;;;;;;;;;;4.70;99.90;;;;;;4999020;28;19929;-56
2022/01/28 01:14:38;;;;;;;;;;;4.70;99.90;;;;;;4966977;28;19930;-56
2022/01/28 01:19:38;;;;;;;;;;;4.60;99.90;;;;;;4977591;28;20398;-56
2022/01/28 01:22:03;;;;;;;;;;;4.60;99.90;;;;;;4986175;28;19976;-56
2022/01/28 01:24:35;;;;;;;;;;;4.70;99.90;;;;;;4985644;28;19929;-60
2022/01/28 01:27:01;;;;;;;;;;;4.60;99.90;;;;;;4985523;28;19937;-57
2022/01/28 01:29:27;;;;;;;;;;;4.60;99.90;;;;;;4985412;28;19929;-55
2022/01/28 01:32:01;;;;;;;;;;;4.70;99.90;;;;;;4986107;28;20013;-56
2022/01/28 01:34:26;;;;;;;;;;;4.60;99.90;;;;;;4985543;28;20276;-55
2022/01/28 01:36:52;;;;;;;;;;;4.60;99.90;;;;;;4986233;28;19937;-57
2022/01/28 01:39:27;;;;;;;;;;;4.60;99.90;;;;;;4985587;28;20299;-55
2022/01/28 01:42:05;;;;;;;;;;;4.70;99.90;;;;;;4985619;28;20340;-55
2022/01/28 01:52:00;;;;;;;;;;;4.70;99.90;;;;;;4985904;28;19941;-57
2022/01/28 01:52:39;;;;;;;;;;;4.70;99.90;;;;;;4985590;28;20330;-56
2022/01/28 01:55:05;;;;;;;;;;;4.70;99.90;;;;;;4985253;28;19936;-56
2022/01/28 01:57:31;;;;;;;;;;;4.70;99.90;;;;;;4986101;28;19930;-55
2022/01/28 01:59:56;;;;;;;;;;;4.70;99.90;;;;;;4968209;28;19930;-55
2022/01/28 02:02:22;;;;;;;;;;;4.70;99.90;;;;;;4985393;28;19938;-56
2022/01/28 02:04:47;;;;;;;;;;;4.70;99.90;;;;;;4984964;28;19981;-57
2022/01/28 02:07:15;;;;;;;;;;;4.80;99.90;;;;;;5003245;28;19929;-58
2022/01/28 02:09:40;;;;;;;;;;;4.80;99.90;;;;;;5005150;28;19983;-58
2022/01/28 02:12:06;;;;;;;;;;;4.90;99.90;;;;;;5008245;28;19929;-55
2022/01/28 02:14:32;;;;;;;;;;;4.90;99.90;;;;;;4990272;28;20307;-57
2022/01/28 02:16:58;;;;;;;;;;;5.00;99.90;;;;;;4988957;28;19983;-56
2022/01/28 02:19:23;;;;;;;;;;;5.00;99.90;;;;;;4988727;28;20436;-56
2022/01/28 02:21:51;;;;;;;;;;;5.20;99.90;;;;;;4988670;28;19930;-56
2022/01/28 02:24:23;;;;;;;;;;;5.10;99.90;;;;;;4988892;28;19929;-55
2022/01/28 02:26:48;;;;;;;;;;;5.10;99.90;;;;;;4988560;28;19934;-55
2022/01/28 02:29:25;;;;;;;;;;;5.00;99.90;;;;;;4988058;28;19952;-63
2022/01/28 02:31:51;;;;;;;;;;;5.10;99.90;;;;;;4997013;28;19936;-56
2022/01/28 02:34:16;;;;;;;;;;;5.10;99.90;;;;;;5008402;28;19930;-56
2022/01/28 02:36:42;;;;;;;;;;;5.20;99.90;;;;;;5008374;28;19933;-56
2022/01/28 02:39:10;;;;;;;;;;;5.20;99.90;;;;;;4988529;28;20387;-60
2022/01/28 02:41:39;;;;;;;;;;;5.30;99.90;;;;;;4988347;28;19956;-58
2022/01/28 02:46:33;;;;;;;;;;;5.30;99.90;;;;;;4988175;28;19976;-59
2022/01/28 02:49:06;;;;;;;;;;;5.30;99.90;;;;;;4987199;28;20028;-64
2022/01/28 02:51:32;;;;;;;;;;;5.60;99.90;;;;;;4987963;28;19949;-63
2022/01/28 02:54:00;;;;;;;;;;;5.50;99.90;;;;;;4988349;28;19930;-63
2022/01/28 02:58:55;;;;;;;;;;;5.40;99.90;;;;;;4988438;28;20330;-62
2022/01/28 03:01:21;;;;;;;;;;;5.00;99.90;;;;;;4977337;28;19934;-64
2022/01/28 03:03:48;;;;;;;;;;;5.00;99.90;;;;;;4977888;28;20298;-55
2022/01/28 03:06:14;;;;;;;;;;;5.00;99.90;;;;;;4996833;28;19944;-54
2022/01/28 03:08:44;;;;;;;;;;;5.00;99.90;;;;;;5007806;28;19933;-56
2022/01/28 03:16:27;;;;;;;;;;;5.00;99.90;;;;;;4987843;28;19975;-59
2022/01/28 03:18:57;;;;;;;;;;;5.00;99.90;;;;;;4987994;28;20022;-64
2022/01/28 03:23:49;;;;;;;;;;;5.00;99.90;;;;;;4987111;28;20292;-55
2022/01/28 03:26:15;;;;;;;;;;;5.00;99.90;;;;;;4987896;28;19930;-60
2022/01/28 03:28:40;;;;;;;;;;;5.10;99.90;;;;;;4986951;28;20406;-55
2022/01/28 03:31:06;;;;;;;;;;;5.10;99.90;;;;;;4987506;28;19933;-59
2022/01/28 03:33:32;;;;;;;;;;;5.10;99.90;;;;;;4987361;28;19930;-57
2022/01/28 03:35:58;;;;;;;;;;;5.10;99.90;;;;;;4987704;28;19929;-55
2022/01/28 03:38:23;;;;;;;;;;;5.10;99.90;;;;;;4987008;28;20419;-55
2022/01/28 03:40:51;;;;;;;;;;;5.10;99.90;;;;;;4987990;28;19930;-55
2022/01/28 03:43:17;;;;;;;;;;;5.50;99.90;;;;;;4986448;28;19998;-62
2022/01/28 03:45:42;;;;;;;;;;;5.20;99.90;;;;;;4987753;28;19930;-57
2022/01/28 03:48:08;;;;;;;;;;;5.20;99.90;;;;;;4987600;28;19941;-55
2022/01/28 03:50:34;;;;;;;;;;;5.20;99.90;;;;;;4987739;28;19929;-55
2022/01/28 03:53:00;;;;;;;;;;;5.70;99.90;;;;;;4987371;28;19936;-57
2022/01/28 03:55:26;;;;;;;;;;;5.20;99.90;;;;;;4987153;28;19933;-56
2022/01/28 03:57:52;;;;;;;;;;;5.20;99.90;;;;;;4974188;28;19937;-56
2022/01/28 04:00:17;;;;;;;;;;;5.30;99.90;;;;;;4969589;28;19933;-58
2022/01/28 04:02:44;;;;;;;;;;;5.30;99.90;;;;;;4968515;28;19930;-55
2022/01/28 04:13:47;;;;;;;;;;;5.40;99.90;;;;;;4987094;28;19983;-55
2022/01/28 04:18:50;;;;;;;;;;;5.30;99.90;;;;;;4986866;28;19937;-56
2022/01/28 04:21:15;;;;;;;;;;;5.40;99.90;;;;;;4987104;28;19961;-55
2022/01/28 04:23:41;;;;;;;;;;;5.40;99.90;;;;;;4986604;28;19988;-56
2022/01/28 04:26:07;;;;;;;;;;;5.30;99.90;;;;;;4986814;28;19981;-63
2022/01/28 04:28:32;;;;;;;;;;;5.40;99.90;;;;;;4987179;28;19930;-56
2022/01/28 04:30:58;;;;;;;;;;;5.40;99.90;;;;;;5020305;28;19941;-62
2022/01/28 04:33:24;;;;;;;;;;;5.40;99.90;;;;;;4992053;28;20038;-60
2022/01/28 04:35:53;;;;;;;;;;;5.40;99.90;;;;;;4967455;28;19985;-61
2022/01/28 04:41:22;;;;;;;;;;;5.40;99.90;;;;;;4987093;28;19930;-58
2022/01/28 04:43:45;;;;;;;;;;;5.70;99.90;;;;;;4986341;28;20017;-64
2022/01/28 04:48:51;;;;;;;;;;;5.50;99.90;;;;;;4986087;28;19929;-56
2022/01/28 04:53:56;;;;;;;;;;;5.40;99.90;;;;;;4986505;28;20057;-55
2022/01/28 04:59:32;;;;;;;;;;;5.50;99.90;;;;;;4986731;28;19925;-55
2022/01/28 05:28:42;;;;;;;;;;;5.20;99.90;;;;;;4983864;28;19967;-56
2022/01/28 05:31:07;;;;;;;;;;;5.80;99.90;;;;;;5077873;28;19928;-55
2022/01/28 05:33:33;;;;;;;;;;;5.20;99.90;;;;;;5005730;28;20004;-58
2022/01/28 05:35:58;;;;;;;;;;;5.20;99.90;;;;;;5000926;28;19934;-62
2022/01/28 05:38:24;;;;;;;;;;;5.20;99.90;;;;;;4990312;28;19930;-60
2022/01/28 05:40:50;;;;;;;;;;;5.20;99.90;;;;;;5044451;28;19928;-55
2022/01/28 05:43:15;;;;;;;;;;;5.20;99.90;;;;;;5010995;28;19930;-56
2022/01/28 05:45:41;;;;;;;;;;;5.20;99.90;;;;;;4984904;28;19936;-55
2022/01/28 05:48:06;;;;;;;;;;;5.40;99.90;;;;;;4984119;28;20395;-55
2022/01/28 05:50:32;;;;;;;;;;;5.20;99.90;;;;;;4970641;28;19952;-56
2022/01/28 05:53:00;;;;;;;;;;;5.70;99.90;;;;;;4966590;28;19930;-58
2022/01/28 05:55:25;;;;;;;;;;;5.20;99.90;;;;;;4965695;28;19984;-55
2022/01/28 05:57:51;;;;;;;;;;;5.20;99.90;;;;;;4966832;28;20350;-56
2022/01/28 06:00:17;;;;;;;;;;;5.30;99.90;;;;;;4976489;28;20299;-55
2022/01/28 06:02:43;;;;;;;;;;;5.30;99.90;;;;;;4985114;28;19937;-62
2022/01/28 06:05:09;;;;;;;;;;;5.30;99.90;;;;;;4984901;28;19941;-64
2022/01/28 06:07:41;;;;;;;;;;;5.30;99.90;;;;;;4985116;28;19929;-62
2022/01/28 06:10:07;;;;;;;;;;;5.70;99.90;;;;;;4985610;28;19930;-62
2022/01/28 06:12:38;;;;;;;;;;;5.30;99.90;;;;;;4984728;28;19930;-63
2022/01/28 06:15:03;;;;;;;;;;;5.30;99.90;;;;;;4985490;28;19929;-64
2022/01/28 06:17:29;;;;;;;;;;;5.20;99.90;;;;;;4985446;28;20032;-63
2022/01/28 06:19:54;;;;;;;;;;;5.20;99.90;;;;;;4985700;28;19926;-64
2022/01/28 06:22:20;;;;;;;;;;;5.20;99.90;;;;;;4985512;28;19937;-64
2022/01/28 06:24:45;;;;;;;;;;;5.60;99.90;;;;;;4984850;28;20351;-64
2022/01/28 06:27:11;;;;;;;;;;;5.20;99.90;;;;;;4984375;28;20362;-56
2022/01/28 06:29:37;;;;;;;;;;;5.20;99.90;;;;;;4984941;28;19930;-61
2022/01/28 06:32:02;;;;;;;;;;;5.20;99.90;;;;;;4985448;28;20355;-55
2022/01/28 06:34:28;;;;;;;;;;;5.10;99.90;;;;;;4985396;28;19930;-59
2022/01/28 06:36:54;;;;;;;;;;;5.10;99.90;;;;;;4984614;28;20389;-58
2022/01/28 06:39:19;;;;;;;;;;;5.10;99.90;;;;;;4984667;28;19930;-63
2022/01/28 06:41:45;;;;;;;;;;;5.10;99.90;;;;;;4983795;28;19930;-57
2022/01/28 06:44:11;;;;;;;;;;;5.10;99.90;;;;;;4985561;28;20264;-61
2022/01/28 06:46:37;;;;;;;;;;;5.00;99.90;;;;;;4981621;28;19937;-57
2022/01/28 06:49:03;;;;;;;;;;;5.00;99.90;;;;;;4985204;28;19930;-55
2022/01/28 06:51:28;;;;;;;;;;;5.00;99.90;;;;;;4984980;28;20296;-55
2022/01/28 06:53:54;;;;;;;;;;;5.00;99.90;;;;;;4984923;28;19930;-58
2022/01/28 06:56:19;;;;;;;;;;;5.00;99.90;;;;;;4983590;28;19930;-56
2022/01/28 06:58:45;;;;;;;;;;;4.90;99.90;;;;;;4985520;28;19929;-56
2022/01/28 07:01:10;;;;;;;;;;;4.90;99.90;;;;;;4986041;28;19937;-55
2022/01/28 07:03:36;;;;;;;;;;;4.80;99.90;;;;;;4986395;28;20291;-56
2022/01/28 07:06:01;;;;;;;;;;;4.80;99.90;;;;;;4984270;28;19996;-56
2022/01/28 07:08:28;;;;;;;;;;;4.80;99.90;;;;;;4986206;28;19937;-56
2022/01/28 07:10:53;;;;;;;;;;;4.80;99.90;;;;;;4986596;28;20043;-57
2022/01/28 07:13:19;;;;;;;;;;;5.40;99.90;;;;;;4986980;28;20399;-57
2022/01/28 07:15:48;;;;;;;;;;;4.80;99.90;;;;;;5008035;28;19925;-56
2022/01/28 07:18:13;;;;;;;;;;;4.80;99.90;;;;;;4976229;28;19934;-56
2022/01/28 07:20:39;;;;;;;;;;;4.80;99.90;;;;;;4978248;28;20359;-58
2022/01/28 07:23:04;;;;;;;;;;;4.80;99.90;;;;;;4983135;28;20020;-56
2022/01/28 07:25:30;;;;;;;;;;;5.10;99.90;;;;;;4991398;28;19936;-62
2022/01/28 07:27:56;;;;;;;;;;;4.80;99.90;;;;;;4985694;28;19930;-55
2022/01/28 07:30:22;;;;;;;;;;;4.70;99.90;;;;;;4987405;28;19953;-56
2022/01/28 07:32:49;;;;;;;;;;;4.70;99.90;;;;;;5047250;28;19935;-60
2022/01/28 07:35:15;;;;;;;;;;;4.70;99.90;;;;;;4983388;28;19933;-56
2022/01/28 07:37:41;;;;;;;;;;;4.70;99.90;;;;;;5003091;28;19983;-55
2022/01/28 07:40:06;;;;;;;;;;;4.70;99.90;;;;;;4990837;28;19925;-56
2022/01/28 07:42:36;;;;;;;;;;;4.70;99.90;;;;;;4995945;28;19930;-55
2022/01/28 07:45:03;;;;;;;;;;;4.70;99.90;;;;;;5000208;28;19977;-57
2022/01/28 07:47:28;;;;;;;;;;;4.70;99.90;;;;;;4985554;28;19937;-58
2022/01/28 07:49:54;;;;;;;;;;;4.70;99.90;;;;;;4988177;28;19937;-62
2022/01/28 07:52:19;;;;;;;;;;;4.80;99.90;;;;;;4986166;28;19937;-58
2022/01/28 07:54:49;;;;;;;;;;;4.80;99.90;;;;;;4984045;28;19929;-57
2022/01/28 07:57:14;;;;;;;;;;;4.80;99.90;;;;;;4987376;28;19983;-62
2022/01/28 07:59:40;;;;;;;;;;;4.80;99.90;;;;;;4986555;28;19934;-55
2022/01/28 08:02:06;;;;;;;;;;;4.80;99.90;;;;;;4983354;28;20303;-55
2022/01/28 08:04:31;;;;;;;;;;;4.80;99.90;;;;;;4986938;28;19930;-55
2022/01/28 08:06:57;;;;;;;;;;;4.80;99.90;;;;;;5001537;28;20339;-55
2022/01/28 08:09:22;;;;;;;;;;;4.80;99.90;;;;;;5000307;28;19936;-60
2022/01/28 08:11:48;;;;;;;;;;;4.90;99.90;;;;;;4986312;28;19944;-56
2022/01/28 08:14:14;;;;;;;;;;;4.90;99.90;;;;;;4985309;28;20024;-63
2022/01/28 08:16:40;;;;;;;;;;;4.80;99.90;;;;;;4992132;28;19934;-63
2022/01/28 08:19:05;;;;;;;;;;;4.90;99.90;;;;;;4984610;28;19936;-57
2022/01/28 08:21:31;;;;;;;;;;;4.80;99.90;;;;;;4983688;28;19930;-61
2022/01/28 08:23:57;;;;;;;;;;;4.90;99.90;;;;;;4990921;28;19973;-56
2022/01/28 08:26:23;;;;;;;;;;;4.80;99.90;;;;;;4986195;28;19929;-56
2022/01/28 08:28:48;;;;;;;;;;;6.30;99.90;;;;;;4985857;28;19995;-56
2022/01/28 08:31:14;;;;;;;;;;;5.20;99.90;;;;;;4991325;28;19932;-55
2022/01/28 08:33:39;;;;;;;;;;;5.10;99.90;;;;;;5076367;28;19928;-56
2022/01/28 08:36:05;;;;;;;;;;;4.90;99.90;;;;;;5088395;28;19935;-56
2022/01/28 08:38:37;;;;;;;;;;;4.90;99.90;;;;;;5069033;28;20020;-58
2022/01/28 08:41:02;;;;;;;;;;;4.90;99.90;;;;;;4985511;28;19969;-56
2022/01/28 08:43:28;;;;;;;;;;;5.10;99.90;;;;;;4985871;28;19979;-56
2022/01/28 08:45:54;;;;;;;;;;;5.00;99.90;;;;;;4986100;28;19936;-60
2022/01/28 08:48:20;;;;;;;;;;;5.00;99.90;;;;;;5047103;28;19928;-60
2022/01/28 08:50:45;;;;;;;;;;;5.00;99.90;;;;;;5088452;28;19928;-57
2022/01/28 08:53:11;;;;;;;;;;;5.10;99.90;;;;;;5088305;28;19924;-59
2022/01/28 08:55:38;;;;;;;;;;;5.30;99.90;;;;;;5087435;28;20019;-62
2022/01/28 08:58:07;;;;;;;;;;;5.20;99.90;;;;;;5088743;28;20105;-57
2022/01/28 09:00:33;;;;;;;;;;;5.30;99.90;;;;;;5020653;28;20406;-56
2022/01/28 09:02:58;;;;;;;;;;;5.40;99.90;;;;;;4984062;28;19933;-61
2022/01/28 09:05:24;;;;;;;;;;;5.50;99.90;;;;;;4985259;28;19942;-57
2022/01/28 09:07:51;;;;;;;;;;;5.60;99.90;;;;;;4985732;28;19936;-61
2022/01/28 09:10:23;;;;;;;;;;;5.60;99.90;;;;;;4989602;28;20307;-61
2022/01/28 09:13:10;;;;;;;;;;;5.70;99.90;;;;;;4984092;28;19986;-59
2022/01/28 09:15:39;;;;;;;;;;;6.00;99.90;;;;;;4985798;28;20380;-62
2022/01/28 09:18:05;;;;;;;;;;;5.80;99.90;;;;;;4983799;28;19930;-63
2022/01/28 09:20:30;;;;;;;;;;;5.90;99.90;;;;;;4982541;28;19930;-58
2022/01/28 09:22:57;;;;;;;;;;;5.90;99.90;;;;;;4982893;28;20428;-64
2022/01/28 09:25:23;;;;;;;;;;;6.00;99.90;;;;;;4992054;28;20462;-64
2022/01/28 09:27:48;;;;;;;;;;;6.00;99.90;;;;;;4966555;28;19934;-55
2022/01/28 09:30:14;;;;;;;;;;;6.10;99.90;;;;;;4976401;28;19936;-55
2022/01/28 09:32:39;;;;;;;;;;;6.10;99.90;;;;;;4986722;28;19930;-59
2022/01/28 09:35:05;;;;;;;;;;;6.30;99.90;;;;;;4983050;28;20077;-63
2022/01/28 09:37:31;;;;;;;;;;;6.40;99.90;;;;;;4983426;28;20291;-57
2022/01/28 09:39:57;;;;;;;;;;;6.40;99.90;;;;;;4979605;28;20294;-63
2022/01/28 09:42:27;;;;;;;;;;;6.60;99.90;;;;;;4981174;28;19936;-58
2022/01/28 09:44:54;;;;;;;;;;;6.50;99.90;;;;;;4982518;28;20445;-62
2022/01/28 09:47:19;;;;;;;;;;;6.60;99.90;;;;;;4980782;28;19934;-58
2022/01/28 09:49:45;;;;;;;;;;;6.70;99.90;;;;;;4983010;28;19929;-61
2022/01/28 09:52:11;;;;;;;;;;;6.70;99.90;;;;;;4983409;28;20311;-64
2022/01/28 09:54:37;;;;;;;;;;;6.70;99.90;;;;;;4981470;28;20044;-64
2022/01/28 09:57:04;;;;;;;;;;;6.80;99.90;;;;;;4982959;28;20032;-58
2022/01/28 09:59:29;;;;;;;;;;;6.90;99.90;;;;;;4983086;28;19938;-58
2022/01/28 10:01:55;;;;;;;;;;;7.00;99.90;;;;;;4983022;28;19930;-56
2022/01/28 10:04:21;;;;;;;;;;;7.00;99.90;;;;;;4983047;28;19977;-55
2022/01/28 10:06:47;;;;;;;;;;;7.00;99.90;;;;;;4984540;28;20436;-58
2022/01/28 10:09:14;;;;;;;;;;;7.10;99.90;;;;;;4983214;28;19930;-55
2022/01/28 10:11:43;;;;;;;;;;;7.10;99.90;;;;;;4983982;28;19930;-55
2022/01/28 10:14:13;;;;;;;;;;;7.20;99.90;;;;;;4985025;28;20409;-65
2022/01/28 10:16:39;;;;;;;;;;;7.10;99.90;;;;;;4984598;28;19987;-61
2022/01/28 10:19:06;;;;;;;;;;;7.20;99.90;;;;;;4984244;28;19934;-58
2022/01/28 10:21:31;;;;;;;;;;;7.20;99.90;;;;;;4984987;28;19930;-56
2022/01/28 10:23:58;;;;;;;;;;;7.20;99.90;;;;;;4983599;28;20298;-56
2022/01/28 10:26:39;;;;;;;;;;;7.30;99.90;;;;;;4984114;28;20446;-59
2022/01/28 10:29:07;;;;;;;;;;;7.20;99.90;;;;;;4995137;28;19939;-62
2022/01/28 10:32:02;;;;;;;;;;;7.20;99.90;;;;;;4985904;28;19937;-57
2022/01/28 10:34:30;;;;;;;;;;;7.30;99.90;;;;;;4982869;28;19945;-57
2022/01/28 10:37:09;;;;;;;;;;;7.30;99.90;;;;;;4988098;28;19937;-62
2022/01/28 10:39:42;;;;;;;;;;;7.20;99.90;;;;;;4988222;28;19951;-57
2022/01/28 10:42:09;;;;;;;;;;;7.30;99.90;;;;;;4999788;28;20341;-59
2022/01/28 10:44:49;;;;;;;;;;;7.40;99.90;;;;;;4979341;28;19975;-57
2022/01/28 10:47:27;;;;;;;;;;;7.50;99.90;;;;;;4979029;28;20020;-60
2022/01/28 10:49:53;;;;;;;;;;;7.80;99.90;;;;;;4976492;28;20045;-56
2022/01/28 10:52:19;;;;;;;;;;;7.90;99.90;;;;;;4966124;28;20020;-55
2022/01/28 10:54:55;;;;;;;;;;;8.00;99.90;;;;;;4965470;28;19930;-57
2022/01/28 10:57:21;;;;;;;;;;;8.20;99.90;;;;;;4966977;28;19934;-56
2022/01/28 10:59:47;;;;;;;;;;;8.30;99.90;;;;;;4973627;28;20337;-56
2022/01/28 11:02:12;;;;;;;;;;;8.30;99.90;;;;;;4987704;28;19936;-56
2022/01/28 11:04:39;;;;;;;;;;;8.20;99.90;;;;;;5050539;28;19951;-57
2022/01/28 11:07:05;;;;;;;;;;;8.10;99.90;;;;;;4989199;28;19959;-59
2022/01/28 11:09:31;;;;;;;;;;;8.20;99.90;;;;;;4966265;28;19944;-57
2022/01/28 11:11:57;;;;;;;;;;;8.20;99.90;;;;;;4966996;28;19938;-55
2022/01/28 11:14:23;;;;;;;;;;;8.30;99.90;;;;;;4984870;28;19979;-60
2022/01/28 11:16:48;;;;;;;;;;;8.50;99.90;;;;;;4978173;28;19930;-61
2022/01/28 11:19:16;;;;;;;;;;;8.40;99.90;;;;;;4973814;28;19936;-56
2022/01/28 11:21:48;;;;;;;;;;;8.50;99.90;;;;;;4965193;28;19930;-63
2022/01/28 11:24:34;;;;;;;;;;;8.50;99.90;;;;;;4974116;28;19929;-57
2022/01/28 11:27:06;;;;;;;;;;;8.50;99.90;;;;;;4972773;28;19972;-56
2022/01/28 11:29:31;;;;;;;;;;;8.50;99.90;;;;;;4982090;28;20367;-57
2022/01/28 11:31:58;;;;;;;;;;;8.70;99.90;;;;;;4982857;28;19983;-56
2022/01/28 11:34:25;;;;;;;;;;;8.50;99.90;;;;;;4984949;28;19930;-56
2022/01/28 11:36:51;;;;;;;;;;;8.40;99.90;;;;;;4980177;28;19930;-56
2022/01/28 11:39:19;;;;;;;;;;;8.20;99.90;;;;;;4982382;28;19930;-57
2022/01/28 11:42:02;;;;;;;;;;;8.20;99.90;;;;;;4982387;28;19977;-57
2022/01/28 11:44:40;;;;;;;;;;;8.10;99.90;;;;;;4980718;28;20471;-56
2022/01/28 11:47:08;;;;;;;;;;;8.10;99.90;;;;;;4987740;28;19939;-56
2022/01/28 11:49:50;;;;;;;;;;;8.50;99.90;;;;;;4979647;28;19930;-61
2022/01/28 11:52:24;;;;;;;;;;;8.60;99.90;;;;;;4982001;28;19988;-57
2022/01/28 11:54:50;;;;;;;;;;;8.30;99.90;;;;;;4978982;28;20033;-59
2022/01/28 11:57:16;;;;;;;;;;;8.30;99.90;;;;;;4982080;28;19936;-57
2022/01/28 11:59:42;;;;;;;;;;;8.20;99.90;;;;;;4963874;28;19934;-62
2022/01/28 12:02:09;;;;;;;;;;;8.20;99.90;;;;;;4980008;28;19934;-56
2022/01/28 12:04:35;;;;;;;;;;;8.30;99.90;;;;;;4982251;28;19929;-60
2022/01/28 12:07:03;;;;;;;;;;;8.40;99.90;;;;;;4985158;28;19929;-56
2022/01/28 12:09:29;;;;;;;;;;;8.40;99.90;;;;;;4970490;28;19934;-56
2022/01/28 12:11:55;;;;;;;;;;;8.50;99.90;;;;;;4968463;28;19936;-59
2022/01/28 12:14:39;;;;;;;;;;;8.50;99.90;;;;;;4983197;28;19941;-56
2022/01/28 12:17:24;;;;;;;;;;;8.70;99.90;;;;;;4964084;28;19931;-56
2022/01/28 12:20:08;;;;;;;;;;;8.60;99.90;;;;;;4976097;28;19937;-56
2022/01/28 12:22:34;;;;;;;;;;;8.40;99.90;;;;;;4990880;28;19971;-58
2022/01/28 12:24:59;;;;;;;;;;;8.40;99.90;;;;;;4992197;28;20037;-58
2022/01/28 12:27:32;;;;;;;;;;;8.50;99.90;;;;;;4982221;28;20053;-57
2022/01/28 12:30:00;;;;;;;;;;;8.80;99.90;;;;;;4997554;28;19930;-61
2022/01/28 12:32:25;;;;;;;;;;;8.80;99.90;;;;;;4983442;28;20276;-59
2022/01/28 12:34:51;;;;;;;;;;;9.00;99.90;;;;;;4982539;28;19936;-57
2022/01/28 12:37:22;;;;;;;;;;;8.90;99.90;;;;;;4983281;28;19983;-61
2022/01/28 12:39:59;;;;;;;;;;;8.70;99.90;;;;;;4983303;28;19930;-62
2022/01/28 12:42:27;;;;;;;;;;;8.80;99.90;;;;;;4982023;28;20044;-56
2022/01/28 12:44:53;;;;;;;;;;;8.60;99.90;;;;;;4983407;28;19930;-59
2022/01/28 12:47:19;;;;;;;;;;;8.40;99.90;;;;;;4983025;28;19941;-59
2022/01/28 12:49:46;;;;;;;;;;;8.30;99.90;;;;;;4980269;28;19969;-58
2022/01/28 12:52:11;;;;;;;;;;;8.40;99.90;;;;;;4981439;28;19990;-58
2022/01/28 12:54:44;;;;;;;;;;;8.50;99.90;;;;;;4989280;28;19929;-56
2022/01/28 12:57:11;;;;;;;;;;;8.30;99.90;;;;;;4982942;28;20016;-55
2022/01/28 12:59:38;;;;;;;;;;;8.30;99.90;;;;;;4980669;28;19929;-58
2022/01/28 13:02:03;;;;;;;;;;;8.20;99.90;;;;;;4983934;28;19936;-56
2022/01/28 13:04:49;;;;;;;;;;;8.30;99.90;;;;;;4979326;28;19934;-57
2022/01/28 13:09:54;;;;;;;;;;;8.40;99.90;;;;;;4979387;28;19975;-57
2022/01/28 13:12:21;;;;;;;;;;;8.60;99.90;;;;;;4979672;28;19934;-58
2022/01/28 13:14:47;;;;;;;;;;;8.50;99.90;;;;;;4969360;28;19941;-56
2022/01/28 13:17:17;;;;;;;;;;;8.40;99.90;;;;;;4980075;28;19929;-61
2022/01/28 13:19:42;;;;;;;;;;;8.40;99.90;;;;;;4980373;28;19944;-62
2022/01/28 13:22:08;;;;;;;;;;;8.50;99.90;;;;;;4976927;28;19975;-63
2022/01/28 13:24:35;;;;;;;;;;;8.60;99.90;;;;;;4978758;28;20304;-59
2022/01/28 13:27:04;;;;;;;;;;;8.40;99.90;;;;;;4977522;28;20033;-57
2022/01/28 13:29:37;;;;;;;;;;;8.40;99.90;;;;;;4980042;28;19934;-61
2022/01/28 13:32:04;;;;;;;;;;;8.40;99.90;;;;;;4991012;28;20350;-55
2022/01/28 13:34:42;;;;;;;;;;;8.40;99.90;;;;;;4986458;28;20403;-55
2022/01/28 13:37:08;;;;;;;;;;;8.40;99.90;;;;;;4973917;28;20015;-56
2022/01/28 13:39:40;;;;;;;;;;;8.40;99.90;;;;;;4980945;28;20028;-56
2022/01/28 13:42:11;;;;;;;;;;;8.20;99.90;;;;;;4970441;28;19930;-61
2022/01/28 13:44:39;;;;;;;;;;;8.20;99.90;;;;;;4982428;28;20414;-58
2022/01/28 13:47:05;;;;;;;;;;;8.30;99.90;;;;;;4978127;28;20449;-56
2022/01/28 13:49:32;;;;;;;;;;;8.20;99.90;;;;;;4968302;28;20457;-59
2022/01/28 13:52:08;;;;;;;;;;;8.10;99.90;;;;;;4968636;28;19981;-61
2022/01/28 13:54:34;;;;;;;;;;;8.10;99.90;;;;;;4972671;28;19929;-56
2022/01/28 13:57:00;;;;;;;;;;;8.20;99.90;;;;;;4978879;28;19980;-57
2022/01/28 13:59:29;;;;;;;;;;;8.30;99.90;;;;;;4979742;28;20448;-55
2022/01/28 14:01:58;;;;;;;;;;;8.30;99.90;;;;;;4980660;28;19936;-56
2022/01/28 14:04:24;;;;;;;;;;;8.20;99.90;;;;;;4980706;28;20022;-58
2022/01/28 14:07:06;;;;;;;;;;;8.20;99.90;;;;;;4981933;28;20447;-56
2022/01/28 14:09:41;;;;;;;;;;;8.00;99.90;;;;;;4983317;28;19951;-55
2022/01/28 14:12:07;;;;;;;;;;;8.20;99.90;;;;;;4984661;28;19930;-56
2022/01/28 14:14:34;;;;;;;;;;;7.90;99.90;;;;;;4983951;28;19930;-59
2022/01/28 14:17:04;;;;;;;;;;;7.30;99.90;;;;;;4985479;28;20013;-60
2022/01/28 14:19:32;;;;;;;;;;;7.70;99.90;;;;;;4974172;28;19937;-59
2022/01/28 14:21:58;;;;;;;;;;;7.60;99.90;;;;;;4983684;28;19991;-55
2022/01/28 14:24:26;;;;;;;;;;;7.50;99.90;;;;;;4983645;28;20383;-55
2022/01/28 14:27:13;;;;;;;;;;;7.50;99.90;;;;;;4985491;28;19930;-60
2022/01/28 14:32:10;;;;;;;;;;;7.60;99.90;;;;;;4993414;28;20402;-55
2022/01/28 14:34:36;;;;;;;;;;;7.60;99.90;;;;;;5005019;28;19941;-59
2022/01/28 14:37:03;;;;;;;;;;;7.50;99.90;;;;;;5005257;28;19982;-56
2022/01/28 14:39:29;;;;;;;;;;;7.60;99.90;;;;;;4990770;28;19947;-57
2022/01/28 14:42:01;;;;;;;;;;;7.50;99.90;;;;;;4972795;28;20272;-55
2022/01/28 14:44:26;;;;;;;;;;;7.60;99.90;;;;;;4973004;28;19930;-55
2022/01/28 14:46:52;;;;;;;;;;;7.40;99.90;;;;;;5002799;28;19943;-57
2022/01/28 14:49:17;;;;;;;;;;;7.40;99.90;;;;;;4989561;28;19929;-56
2022/01/28 14:51:52;;;;;;;;;;;7.40;99.90;;;;;;5012028;28;20093;-62
2022/01/28 14:54:18;;;;;;;;;;;7.40;99.90;;;;;;5015512;28;19982;-58
2022/01/28 14:56:44;;;;;;;;;;;7.30;99.90;;;;;;4975298;28;19930;-62
2022/01/28 14:59:10;;;;;;;;;;;7.40;99.90;;;;;;4970179;28;19938;-58
2022/01/28 15:01:36;;;;;;;;;;;7.30;99.90;;;;;;4979081;28;20303;-56
2022/01/28 15:04:01;;;;;;;;;;;7.30;99.90;;;;;;4984456;28;19930;-60
2022/01/28 15:06:27;;;;;;;;;;;7.30;99.90;;;;;;5010993;28;19928;-55
2022/01/28 15:08:55;;;;;;;;;;;7.30;99.90;;;;;;4965746;28;19972;-55
2022/01/28 15:11:34;;;;;;;;;;;7.20;99.90;;;;;;4966320;28;19936;-55
2022/01/28 15:13:59;;;;;;;;;;;7.20;99.90;;;;;;4965313;28;19934;-55
2022/01/28 15:16:25;;;;;;;;;;;7.30;99.90;;;;;;4965881;28;20403;-59
2022/01/28 15:18:50;;;;;;;;;;;7.20;99.90;;;;;;4968170;28;20008;-58
2022/01/28 15:21:16;;;;;;;;;;;7.30;99.90;;;;;;4977858;28;19930;-58
2022/01/28 15:23:42;;;;;;;;;;;7.20;99.90;;;;;;4963048;28;19934;-60
2022/01/28 15:26:08;;;;;;;;;;;7.20;99.90;;;;;;4971022;28;19937;-59
2022/01/28 15:28:48;;;;;;;;;;;7.20;99.90;;;;;;4973497;28;19937;-56
2022/01/28 15:34:14;;;;;;;;;;;7.00;99.90;;;;;;4973958;28;19930;-58
2022/01/28 15:36:40;;;;;;;;;;;7.00;99.90;;;;;;4972042;28;19930;-56
2022/01/28 15:39:06;;;;;;;;;;;6.90;99.90;;;;;;4969012;28;20348;-57
2022/01/28 15:41:31;;;;;;;;;;;6.90;99.90;;;;;;4962770;28;19984;-60
2022/01/28 15:43:57;;;;;;;;;;;6.90;99.90;;;;;;4975935;28;20119;-56
2022/01/28 15:46:22;;;;;;;;;;;6.80;99.90;;;;;;4983973;28;20300;-57
2022/01/28 15:48:48;;;;;;;;;;;7.10;99.90;;;;;;4972532;28;19984;-56
2022/01/28 15:51:13;;;;;;;;;;;7.10;99.90;;;;;;4964783;28;19937;-56
2022/01/28 15:53:39;;;;;;;;;;;7.20;99.90;;;;;;4968612;28;20390;-56
2022/01/28 15:56:05;;;;;;;;;;;6.80;99.90;;;;;;4974810;28;19929;-60
2022/01/28 15:58:30;;;;;;;;;;;6.80;99.90;;;;;;4970498;28;19976;-61
2022/01/28 16:00:56;;;;;;;;;;;6.50;99.90;;;;;;4972372;28;19929;-62
2022/01/28 16:03:21;;;;;;;;;;;6.50;99.90;;;;;;4980767;28;20450;-58
2022/01/28 16:05:47;;;;;;;;;;;6.40;99.90;;;;;;4989655;28;19930;-57
2022/01/28 16:08:12;;;;;;;;;;;6.40;99.90;;;;;;4975165;28;20308;-56
2022/01/28 16:10:51;;;;;;;;;;;6.40;99.90;;;;;;4966531;28;19926;-58